Flight Track Log - Related Links

Times and Time Zones

All times are in EDT time to prevent confusion due to time zone crossing. See the PDT4314 flight status page for this flight to view local times or setup timezone preferences in your user account.

Time Position Orientation Groundspeed Altitude Reporting Facility
EDT Latitude Longitude Course Direction KTS MPH feet Rate Location/Type
Thu 06:10:00 PM 41.9972 -75.9106 180° South  Level Estimated
Thu 06:11:00 PM 41.9443 -75.8934 180° South  Level Estimated
Thu 06:12:00 PM 41.8906 -75.9045 189° South  Level FlightAware Approximate
Thu 06:13:00 PM 41.8368 -75.9155 189° South  Level FlightAware Approximate
Thu 06:14:00 PM 41.7831 -75.9266 189° South  Level FlightAware Approximate
Thu 06:15:00 PM 41.7307 -75.9072 154° Southeast  Level Estimated
Thu 06:16:00 PM 41.6782 -75.8878 160° South  Level Estimated
Thu 06:17:00 PM 41.6258 -75.8685 159° South  Level Estimated
Thu 06:18:00 PM 41.5755 -75.8411 158° South  Level FlightAware Approximate
Thu 06:19:00 PM 41.5251 -75.8137 158° South  Level FlightAware Approximate
Thu 06:20:00 PM 41.4726 -75.7950 153° Southeast  Level Estimated
Thu 06:21:00 PM 41.4200 -75.7764 161° South  Level Estimated
Thu 06:22:00 PM 41.3705 -75.7463 155° Southeast  Level FlightAware Approximate
Thu 06:23:00 PM 41.3211 -75.7163 156° South  Level FlightAware Approximate
Thu 06:24:00 PM 41.2683 -75.6986 162° South  Level Estimated
Thu 06:25:00 PM 41.2174 -75.6734 160° South  Level FlightAware Approximate
Thu 06:26:00 PM 41.1664 -75.6483 160° South  Level FlightAware Approximate
Thu 06:27:00 PM 41.1154 -75.6233 160° South  Level FlightAware Approximate
Thu 06:28:00 PM 41.0644 -75.5982 160° South  Level FlightAware Approximate
Thu 06:29:00 PM 41.0134 -75.5732 160° South  Level FlightAware Approximate
Thu 06:30:00 PM 40.9603 -75.5575 163° South  Level Estimated
Thu 06:31:00 PM 40.9088 -75.5347 162° South  Level FlightAware Approximate
Thu 06:32:00 PM 40.8572 -75.5119 162° South  Level FlightAware Approximate
Thu 06:32:57 PM 40.6667 -75.4667 190° South 249 287 7,100  Level Philadelphia TRACON
Thu 06:33:00 PM 40.8056 -75.4892 162° South  Level FlightAware Approximate
Thu 06:34:00 PM 40.7540 -75.4664 162° South  Level FlightAware Approximate
Thu 06:34:15 PM 40.5833 -75.4833 189° South 246 283 6,400  Level Philadelphia TRACON
Thu 06:35:00 PM 40.7007 -75.4526 190° South  Level Estimated
Thu 06:35:15 PM 40.5167 -75.5000 191° South 253 291 5,800  Level Philadelphia TRACON
Thu 06:36:00 PM 40.6472 -75.4653 190° South  Level FlightAware Approximate
Thu 06:36:15 PM 40.4500 -75.4500 150° Southeast 250 288 5,200  Level Philadelphia TRACON
Thu 06:37:00 PM 40.5936 -75.4779 190° South  Level FlightAware Approximate
Thu 06:37:15 PM 40.3833 -75.4000 150° Southeast 251 289 4,600  Level Philadelphia TRACON
Thu 06:38:00 PM 40.5401 -75.4905 190° South  Level FlightAware Approximate
Thu 06:38:15 PM 40.3333 -75.3500 143° Southeast 249 287 4,000  Level Philadelphia TRACON
Thu 06:39:15 PM 40.2833 -75.3000 143° Southeast 232 267 4,000  Level Philadelphia TRACON
Thu 06:40:21 PM 40.2167 -75.2667 159° South 225 259 4,000  Level Philadelphia TRACON
Thu 06:41:21 PM 40.1500 -75.2500 169° South 225 259 4,000  Level Philadelphia TRACON
Thu 06:42:16 PM 40.1000 -75.2167 153° Southeast 225 259 4,000  Level Philadelphia TRACON
Thu 06:43:16 PM 40.0333 -75.2000 169° South 225 259 4,000  Level Philadelphia TRACON
Thu 06:44:21 PM 39.9833 -75.1667 153° Southeast 224 258 4,000  Level Philadelphia TRACON
Thu 06:45:21 PM 39.9167 -75.1500 169° South 219 252 4,000  Level Philadelphia TRACON
Thu 06:46:21 PM 39.8667 -75.1167 153° Southeast 220 253 4,000  Level Philadelphia TRACON
Thu 06:47:22 PM 39.8000 -75.0833 159° South 207 238 4,000  Level Philadelphia TRACON
Thu 06:48:21 PM 39.7500 -75.0667 166° South 198 228 4,000 -600 Level Philadelphia TRACON
Thu 06:49:22 PM 39.7167 -75.1000 218° Southwest 182 209 2,800 -1,200 Descending Philadelphia TRACON
Thu 06:50:16 PM 39.7167 -75.1500 270° West 168 193 1,700 -650 Descending Philadelphia TRACON
Thu 06:51:22 PM 39.7667 -75.1667 346° North 166 191 1,500 -238 Descending Philadelphia TRACON
Thu 06:52:22 PM 39.8167 -75.2000 333° Northwest 184 212 1,200 -500 Descending Philadelphia TRACON
Thu 06:53:22 PM 39.8500 -75.2167 339° North 108 124 500 -700 Descending Philadelphia TRACON

Login

Don't have an account? Register now (free) for customized features, flight alerts, and more!